Latest Weather Observations for Alice Springs Airport

IDD60801

Issued at 9:35 pm CST Tuesday 30 September 2014 (issued every 30 minutes, with the page automatically refreshed every 10 minutes)

About weather observations | Map of weather stations | Latest weather observations for NT | Other Formats
Station Details ID: 015590 Name: ALICE SPRINGS AIRPORT Lat: -23.80 Lon: 133.89 Height: 546.0 m
Data from the previous 72 hours. | See also: Recent months at Alice Springs Airport
Date/Time
CST
Temp
°C
App
Temp
°C
Dew
Point
Rel
Hum
%
Delta-T
°C
Wind Press
QNH
hPa
Press
MSL
hPa
Rain
since 9 am
mm
Dir
 
Spd
km/h
Gust
km/h
Spd
kts
Gust
kts
30/09:00pm 25.1 21.0 -0.1 19 11.9 SE 11 13 6 7 1016.8 1015.0 0.0
30/08:30pm 25.9 21.5 -2.4 15 12.9 S 11 13 6 7 1016.5 1014.6 0.0
30/08:00pm 26.0 21.2 -2.2 15 12.9 S 13 15 7 8 1016.2 1014.3 0.0
30/07:30pm 28.1 23.2 -3.7 12 14.4 S 13 15 7 8 1015.7 1013.9 0.0
30/07:00pm 30.1 25.0 -5.0 10 15.8 S 13 17 7 9 1015.2 1013.4 0.0
30/06:30pm 32.5 26.0 -7.6 7 17.6 S 19 26 10 14 1014.8 1012.9 0.0
30/06:00pm 33.9 27.2 -8.1 6 18.5 S 20 32 11 17 1014.3 1012.4 0.0
30/05:30pm 35.0 29.2 -9.2 5 19.3 S 15 24 8 13 1013.8 1012.0 0.0
30/05:00pm 35.6 28.8 -8.7 5 19.6 S 20 33 11 18 1013.6 1011.8 0.0
30/04:30pm 36.6 29.0 -9.5 5 20.3 SSE 24 32 13 17 1013.4 1011.5 0.0
30/04:00pm 36.3 30.1 -8.6 5 20.0 S 17 30 9 16 1013.4 1011.5 0.0
30/03:30pm 37.1 30.9 -8.7 5 20.5 S 17 26 9 14 1013.4 1011.5 0.0
30/03:00pm 36.2 30.3 -5.5 7 19.5 SSW 17 22 9 12 1013.5 1011.7 0.0
30/02:30pm 35.3 31.0 -4.6 7 18.8 N 9 17 5 9 1013.6 1011.8 0.0
30/02:00pm 35.3 30.6 -5.2 7 18.9 ESE 11 28 6 15 1013.8 1012.0 0.0
30/01:30pm 36.6 30.0 -7.3 6 20.0 SSW 20 37 11 20 1014.1 1012.2 0.0
30/01:00pm 35.6 30.9 -1.5 9 18.4 S 13 20 7 11 1014.5 1012.6 0.0
30/12:00pm 35.5 29.7 -8.5 5 19.5 SSW 15 28 8 15 1015.5 1013.7 0.0
30/11:30am 35.1 30.9 -3.7 8 18.5 ESE 9 15 5 8 1016.0 1014.1 0.0
30/11:00am 34.1 30.6 -6.0 7 18.3 W 4 11 2 6 1016.3 1014.4 0.0
30/10:30am 32.9 28.7 -7.4 7 17.8 NW 7 13 4 7 1016.5 1014.6 0.0
30/10:00am 31.9 27.3 -8.0 7 17.3 NW 9 15 5 8 1016.8 1015.0 0.0
30/09:30am 30.0 25.0 -7.9 8 16.2 W 11 15 6 8 1016.9 1015.1 0.0
30/09:00am 28.4 23.8 -7.9 9 15.3 W 9 15 5 8 1016.8 1015.0 0.0
30/08:30am 25.8 20.7 -9.4 9 14.1 W 11 15 6 8 1016.6 1014.7 0.0
30/08:00am 23.4 18.2 -10.7 9 13.0 WSW 11 17 6 9 1016.4 1014.5 0.0
30/07:30am 20.8 16.2 -7.6 14 11.2 W 9 11 5 6 1015.8 1014.0 0.0
30/07:00am 18.6 14.3 -8.8 15 10.3 W 7 11 4 6 1015.4 1013.6 0.0
30/06:30am 15.3 12.0 -8.1 19 8.6 WSW 2 7 1 4 1015.0 1013.1 0.0
30/06:00am 17.5 12.4 -9.0 15 9.8 WSW 11 17 6 9 1014.5 1012.6 0.0
30/05:30am 15.1 11.3 -3.8 27 7.6 NNW 7 9 4 5 1014.2 1012.3 0.0
30/05:00am 18.3 13.1 -5.8 19 9.6 N 13 13 7 7 1013.7 1011.9 0.0
30/04:30am 16.8 12.5 -5.0 22 8.7 WNW 9 11 5 6 1013.6 1011.8 0.0
30/04:00am 19.2 14.0 -6.0 17 10.1 N 13 17 7 9 1013.3 1011.4 0.0
30/03:30am 20.3 14.9 -8.5 13 11.1 N 13 17 7 9 1013.3 1011.4 0.0
30/03:00am 18.3 13.9 -6.2 18 9.7 N 9 11 5 6 1013.3 1011.4 0.0
30/02:30am 17.1 12.1 -8.3 17 9.5 WNW 11 13 6 7 1013.4 1011.5 0.0
30/02:00am 19.6 15.0 -7.6 15 10.6 N 9 11 5 6 1013.6 1011.8 0.0
30/01:30am 18.3 15.2 -6.3 18 9.7 W 2 11 1 6 1013.8 1012.0 0.0
30/01:00am 18.3 14.2 -6.8 17 9.8 ESE 7 9 4 5 1014.0 1012.1 0.0
30/12:30am 18.1 13.4 -4.8 20 9.3 S 11 13 6 7 1013.8 1012.0 0.0
30/12:00am 19.5 14.7 -6.3 17 10.3 SSW 11 17 6 9 1014.0 1012.1 0.0
 
Date/Time
CST
Temp
°C
App
Temp
°C
Dew
Point
Rel
Hum
%
Delta-T
°C
Wind Press
QNH
hPa
Press
MSL
hPa
Rain
since 9 am
mm
Dir
 
Spd
km/h
Gust
km/h
Spd
kts
Gust
kts
29/11:30pm 22.3 17.0 -7.2 13 11.9 N 13 15 7 8 1014.1 1012.2 0.0
29/11:00pm 21.7 16.9 -6.1 15 11.4 NNW 11 11 6 6 1014.4 1012.5 0.0
29/10:30pm 23.6 18.8 -5.6 14 12.3 NW 11 11 6 6 1014.5 1012.6 0.0
29/10:00pm 22.6 17.8 -6.3 14 11.9 N 11 15 6 8 1014.7 1012.8 0.0
29/09:30pm 23.6 19.1 -7.3 12 12.6 NNW 9 11 5 6 1014.7 1012.8 0.0
29/09:00pm 24.1 19.8 -5.2 14 12.5 NW 9 11 5 6 1014.6 1012.7 0.0
29/08:30pm 25.6 21.4 -4.1 14 13.1 NW 9 9 5 5 1014.3 1012.4 0.0
29/08:00pm 27.4 23.0 -5.7 11 14.4 WNW 9 9 5 5 1014.0 1012.1 0.0
29/07:30pm 28.2 23.7 -6.6 10 15.0 W 9 9 5 5 1013.5 1011.7 0.0
29/07:00pm 30.1 25.5 -8.0 8 16.3 W 9 11 5 6 1013.1 1011.2 0.0
29/06:30pm 31.6 27.3 -5.1 9 16.7 W 9 11 5 6 1012.9 1011.0 0.0
29/06:00pm 34.1 29.3 -10.2 5 18.9 WNW 9 11 5 6 1012.6 1010.7 0.0
29/05:30pm 35.0 29.3 -12.6 4 19.7 W 13 19 7 10 1012.3 1010.4 0.0
29/05:00pm 35.7 31.2 -14.6 3 20.3 W 6 9 3 5 1012.2 1010.3 0.0
29/04:30pm 35.6 29.8 -8.6 5 19.6 NW 15 22 8 12 1012.1 1010.2 0.0
29/04:00pm 35.5 30.2 -11.7 4 19.9 N 11 20 6 11 1011.9 1010.1 0.0
29/03:30pm 35.4 30.1 -7.3 6 19.3 W 13 20 7 11 1012.2 1010.3 0.0
29/03:00pm 35.8 30.8 -13.9 3 20.3 E 9 20 5 11 1012.3 1010.4 0.0
29/02:30pm 35.1 29.3 -8.7 5 19.3 N 15 24 8 13 1012.7 1010.8 0.0
29/02:00pm 34.8 28.1 -7.8 6 19.0 NW 20 28 11 15 1013.1 1011.2 0.0
29/01:30pm 35.5 30.4 -9.2 5 19.6 N 11 20 6 11 1013.6 1011.8 0.0
29/01:00pm 35.1 29.6 -9.5 5 19.4 NW 13 24 7 13 1014.2 1012.3 0.0
29/12:30pm 33.8 26.3 -13.8 4 19.1 N 22 30 12 16 1014.6 1012.7 0.0
29/12:00pm 33.9 27.3 -14.3 4 19.2 WNW 17 22 9 12 1015.0 1013.1 0.0
29/11:30am 33.8 26.4 -20.6 2 19.6 NW 20 30 11 16 1015.4 1013.6 0.0
29/11:00am 33.0 24.0 -21.6 2 19.2 NW 28 33 15 18 1015.8 1014.0 0.0
29/10:30am 32.2 22.9 -19.2 3 18.6 NNW 30 37 16 20 1016.2 1014.3 0.0
29/10:00am 31.3 22.3 -22.8 2 18.3 NNW 28 33 15 18 1016.4 1014.5 0.0
29/09:30am 31.2 21.8 -23.9 2 18.3 NNW 30 39 16 21 1016.4 1014.5 0.0
29/09:00am 29.9 20.5 -24.3 2 17.6 NW 30 35 16 19 1016.5 1014.6 0.0
29/08:30am 28.4 22.2 -14.4 5 16.1 N 15 22 8 12 1016.5 1014.6 0.0
29/08:00am 26.4 19.9 -13.2 6 14.9 N 17 24 9 13 1016.3 1014.4 0.0
29/07:30am 25.7 21.5 -7.8 10 13.8 NNE 7 11 4 6 1016.1 1014.2 0.0
29/07:00am 24.8 19.7 -9.0 10 13.5 NE 11 17 6 9 1015.5 1013.7 0.0
29/06:30am 21.2 16.6 -8.2 13 11.5 E 9 13 5 7 1015.2 1013.4 0.0
29/06:00am 24.3 21.3 -9.4 10 13.3 CALM 0 0 0 0 1014.8 1012.9 0.0
29/05:30am 23.3 17.9 -8.9 11 12.7 WNW 13 19 7 10 1014.4 1012.5 0.0
29/05:00am 23.5 17.7 -8.2 11 12.7 N 15 22 8 12 1013.8 1012.0 0.0
29/04:30am 23.6 17.8 -8.5 11 12.8 N 15 19 8 10 1013.6 1011.8 0.0
29/04:00am 23.1 17.4 -7.0 13 12.3 NNE 15 19 8 10 1013.6 1011.8 0.0
29/03:30am 23.1 17.1 -7.0 13 12.3 N 17 22 9 12 1013.6 1011.8 0.0
29/03:00am 23.2 18.0 -6.2 13 12.2 N 13 17 7 9 1013.8 1012.0 0.0
29/02:30am 24.0 19.5 -7.2 12 12.8 NNE 9 11 5 6 1014.1 1012.2 0.0
29/02:00am 20.9 17.3 -7.3 14 11.2 ENE 4 9 2 5 1014.4 1012.5 0.0
29/01:30am 19.7 16.8 -7.9 15 10.7 CALM 0 2 0 1 1014.5 1012.6 0.0
29/01:00am 20.0 16.9 -6.0 17 10.5 NNE 2 9 1 5 1014.9 1013.0 0.0
29/12:30am 17.9 12.8 -5.3 20 9.3 ESE 13 17 7 9 1015.0 1013.1 0.0
29/12:06am 20.0 15.4 -4.5 19 10.2 SSE 11 11 6 6 1015.0 1013.1 0.0
29/12:00am 25.1 21.1 -7.3 11 13.4 E 6 11 3 6 1015.1 1013.3 0.0
 
Date/Time
CST
Temp
°C
App
Temp
°C
Dew
Point
Rel
Hum
%
Delta-T
°C
Wind Press
QNH
hPa
Press
MSL
hPa
Rain
since 9 am
mm
Dir
 
Spd
km/h
Gust
km/h
Spd
kts
Gust
kts
28/11:30pm 24.2 18.9 -7.2 12 12.9 N 13 13 7 7 1015.2 1013.4 0.0
28/11:00pm 21.1 17.1 -2.0 21 10.2 N 9 11 5 6 1015.4 1013.6 0.0
28/10:30pm 22.9 17.9 -4.0 16 11.6 NNE 13 15 7 8 1015.6 1013.8 0.0
28/10:00pm 22.5 17.5 -4.0 16 11.4 NE 13 15 7 8 1015.7 1013.9 0.0
28/09:30pm 21.1 15.8 -3.8 18 10.6 NE 15 15 8 8 1015.7 1013.9 0.0
28/09:00pm 24.6 20.1 -3.0 16 12.3 NNE 11 11 6 6 1015.5 1013.7 0.0
28/08:30pm 26.1 22.5 -3.8 13 13.3 NNE 6 7 3 4 1015.3 1013.5 0.0
28/08:00pm 25.7 21.7 -2.0 16 12.7 NE 9 11 5 6 1015.0 1013.1 0.0
28/07:30pm 26.9 22.5 -2.1 15 13.4 NNE 11 11 6 6 1014.8 1012.9 0.0
28/07:00pm 29.3 26.6 -2.2 13 14.8 ENE 2 9 1 5 1014.5 1012.6 0.0
28/06:30pm 30.3 27.5 -3.3 11 15.6 ESE 2 7 1 4 1014.2 1012.3 0.0
28/06:00pm 31.8 28.1 -2.9 10 16.4 ENE 7 9 4 5 1014.0 1012.1 0.0
28/05:30pm 33.3 28.7 -8.4 6 18.2 S 9 13 5 7 1013.7 1011.9 0.0
28/05:00pm 33.5 29.3 -7.6 7 18.2 WSW 7 11 4 6 1013.5 1011.7 0.0
28/04:30pm 34.0 29.4 -4.5 8 18.0 SSW 11 19 6 10 1013.5 1011.7 0.0
28/04:00pm 34.4 30.5 -4.8 8 18.3 ESE 7 11 4 6 1013.5 1011.7 0.0
28/03:30pm 32.7 28.4 -8.8 6 17.9 W 7 11 4 6 1013.8 1012.0 0.0
28/03:00pm 33.5 29.1 -5.7 8 17.9 SSE 9 17 5 9 1014.1 1012.2 0.0
28/02:30pm 33.1 29.1 -5.3 8 17.6 WNW 7 9 4 5 1014.4 1012.5 0.0
28/02:00pm 33.2 28.9 -4.4 8 17.5 WNW 9 15 5 8 1014.8 1012.9 0.0
28/01:30pm 32.5 27.2 -6.9 7 17.5 NNW 13 20 7 11 1015.3 1013.5 0.0
28/01:00pm 33.4 29.2 -8.1 6 18.2 NNW 7 17 4 9 1016.0 1014.1 0.0
28/12:30pm 32.3 27.3 -4.6 9 17.0 W 13 20 7 11 1016.4 1014.5 0.0
28/12:00pm 32.4 26.3 -7.4 7 17.5 N 17 22 9 12 1016.9 1015.1 0.0
28/11:30am 31.7 24.3 -7.4 7 17.1 N 24 35 13 19 1017.4 1015.6 0.0
28/11:00am 30.5 23.0 -8.8 7 16.6 N 24 33 13 18 1018.0 1016.1 0.0
28/10:30am 29.8 22.7 -8.8 7 16.2 NNW 22 32 12 17 1018.5 1016.7 0.0
28/10:00am 28.9 22.4 -8.1 8 15.6 N 19 26 10 14 1018.8 1017.0 0.0
28/09:30am 27.9 21.0 -6.6 10 14.8 N 22 30 12 16 1019.0 1017.2 0.0
28/09:00am 26.3 20.0 -5.4 12 13.7 N 19 28 10 15 1019.4 1017.6 0.0
28/08:30am 24.1 17.8 -5.9 13 12.6 N 19 26 10 14 1019.5 1017.7 0.0
28/08:00am 22.7 17.9 -5.6 14 11.8 N 11 17 6 9 1019.4 1017.6 0.0
28/07:30am 19.3 15.7 -6.9 16 10.3 N 4 9 2 5 1019.4 1017.6 0.0
28/07:28am 19.0 15.0 -7.2 16 10.2 N 6 9 3 5 1019.5 1017.7 0.0
28/07:00am 14.0 11.0 -4.8 27 7.3 NW 2 9 1 5 1019.4 1017.6 0.0
28/06:30am 13.0 9.7 -4.7 29 6.8 WSW 4 7 2 4 1019.0 1017.2 0.0
28/06:00am 13.5 10.9 -5.0 27 7.1 CALM 0 0 0 0 1018.8 1017.0 0.0
28/05:30am 15.4 10.3 -5.4 23 8.1 ENE 13 15 7 8 1018.6 1016.8 0.0
28/05:00am 16.2 12.1 -6.5 20 8.7 ENE 7 11 4 6 1018.3 1016.4 0.0
28/04:30am 13.5 9.1 -6.3 24 7.4 NE 9 11 5 6 1018.2 1016.3 0.0
28/04:00am 12.2 8.6 -7.2 25 7.0 NNE 4 7 2 4 1018.2 1016.3 0.0
28/03:30am 14.3 11.6 -5.5 25 7.6 CALM 0 6 0 3 1018.1 1016.2 0.0
28/03:00am 14.2 10.3 -6.2 24 7.7 ENE 6 9 3 5 1018.4 1016.6 0.0
28/02:30am 14.5 9.4 -5.6 24 7.7 E 13 15 7 8 1018.4 1016.6 0.0
28/02:00am 16.0 10.8 -6.5 20 8.6 ENE 13 15 7 8 1018.5 1016.7 0.0
28/01:30am 18.6 13.6 -7.7 16 10.1 E 11 11 6 6 1018.7 1016.9 0.0
28/01:00am 17.6 12.9 -5.1 21 9.1 ENE 11 13 6 7 1018.7 1016.9 0.0
28/12:30am 17.0 12.5 -6.6 19 9.1 ENE 9 11 5 6 1018.7 1016.9 0.0
28/12:00am 19.7 14.2 -5.4 18 10.2 NNE 15 19 8 10 1018.6 1016.8 0.0
 
Date/Time
CST
Temp
°C
App
Temp
°C
Dew
Point
Rel
Hum
%
Delta-T
°C
Wind Press
QNH
hPa
Press
MSL
hPa
Rain
since 9 am
mm
Dir
 
Spd
km/h
Gust
km/h
Spd
kts
Gust
kts
27/11:30pm 20.1 15.2 -7.5 15 10.8 ENE 11 15 6 8 1018.4 1016.6 0.0
27/11:00pm 16.6 12.7 -1.3 29 7.7 ENE 9 11 5 6 1018.4 1016.6 0.0
27/10:30pm 17.6 13.1 -2.9 24 8.6 ENE 11 13 6 7 1018.6 1016.8 0.0
27/10:00pm 19.2 14.7 -2.9 22 9.4 ENE 11 13 6 7 1018.5 1016.7 0.0

Other Formats:

Comma delimited format used in spreadsheet applications
http://www.bom.gov.au/fwo/IDD60801/IDD60801.94326.axf

JavaScript Object Notation format (JSON) in row-major order
http://www.bom.gov.au/fwo/IDD60801/IDD60801.94326.json